createdAt,value
2018-09-21T00:01:19.848Z,52.44
2018-09-21T00:03:53.687Z,51.96
2018-09-21T00:06:23.208Z,51.70
2018-09-21T00:08:52.704Z,51.26
2018-09-21T00:11:21.514Z,52.02
2018-09-21T00:13:51.020Z,51.27
2018-09-21T00:16:21.104Z,51.67
2018-09-21T00:18:51.462Z,50.39
2018-09-21T00:21:20.223Z,50.57
2018-09-21T00:23:49.056Z,50.75
2018-09-21T00:26:17.875Z,50.83
2018-09-21T00:28:46.397Z,50.01
2018-09-21T00:31:15.259Z,49.18
2018-09-21T00:33:44.089Z,49.16
2018-09-21T00:36:13.019Z,49.55
2018-09-21T00:38:42.097Z,49.44
2018-09-21T00:41:10.951Z,49.52
2018-09-21T00:43:40.464Z,49.04
2018-09-21T00:46:09.258Z,48.85
2018-09-21T00:48:38.175Z,49.27
2018-09-21T00:51:06.993Z,49.17
2018-09-21T00:53:36.329Z,49.75
2018-09-21T00:56:06.537Z,49.72
2018-09-21T00:58:35.250Z,49.72
2018-09-21T01:01:04.470Z,49.19
2018-09-21T01:03:33.169Z,49.26
2018-09-21T01:06:02.044Z,49.62
2018-09-21T01:08:31.407Z,50.11
2018-09-21T01:11:00.201Z,49.28
2018-09-21T01:13:29.160Z,49.92
2018-09-21T01:15:57.969Z,50.18
2018-09-21T01:18:26.807Z,49.97
2018-09-21T01:20:55.684Z,50.11
2018-09-21T01:23:24.342Z,50.04
2018-09-21T01:25:53.782Z,50.42
2018-09-21T01:28:22.447Z,50.91
2018-09-21T01:30:51.147Z,50.22
2018-09-21T01:33:20.026Z,50.51
2018-09-21T01:35:49.007Z,50.93
2018-09-21T01:38:17.635Z,51.33
2018-09-21T01:40:47.496Z,51.08
2018-09-21T01:43:16.249Z,51.22
2018-09-21T01:45:44.916Z,51.47
2018-09-21T01:48:13.971Z,51.49
2018-09-21T01:50:42.604Z,51.52
2018-09-21T01:53:11.306Z,50.93
2018-09-21T01:55:40.070Z,51.46
2018-09-21T01:58:08.745Z,51.85
2018-09-21T02:00:37.596Z,51.06
2018-09-21T02:03:06.099Z,52.17
2018-09-21T02:05:34.709Z,52.06
2018-09-21T02:08:04.209Z,52.03
2018-09-21T02:10:33.334Z,51.65
2018-09-21T02:13:02.051Z,51.85
2018-09-21T02:15:30.853Z,51.84
2018-09-21T02:17:59.565Z,51.90
2018-09-21T02:20:28.638Z,51.85
2018-09-21T02:22:57.248Z,51.73
2018-09-21T02:25:25.899Z,52.06
2018-09-21T02:27:54.734Z,52.58
2018-09-21T02:30:23.934Z,52.45
2018-09-21T02:32:52.588Z,53.13
2018-09-21T02:35:22.210Z,52.98
2018-09-21T02:37:50.855Z,53.13
2018-09-21T02:40:19.443Z,53.42
2018-09-21T02:42:48.131Z,53.50
2018-09-21T02:45:16.860Z,53.01
2018-09-21T02:47:45.452Z,53.90
2018-09-21T02:50:14.225Z,53.62
2018-09-21T02:52:43.024Z,53.49
2018-09-21T02:55:11.628Z,53.00
2018-09-21T02:57:40.291Z,54.28
2018-09-21T03:00:10.055Z,54.15
2018-09-21T03:02:38.802Z,54.55
2018-09-21T03:05:07.575Z,54.48
2018-09-21T03:07:36.384Z,53.26
2018-09-21T03:10:05.162Z,53.99
2018-09-21T03:12:33.799Z,54.05
2018-09-21T03:15:03.359Z,54.06
2018-09-21T03:17:32.063Z,54.47
2018-09-21T03:20:07.314Z,54.88
2018-09-21T03:22:36.517Z,54.80
2018-09-21T03:25:05.244Z,54.02
2018-09-21T03:27:34.155Z,55.08
2018-09-21T03:30:04.066Z,54.53
2018-09-21T03:32:32.961Z,55.15
2018-09-21T03:35:02.579Z,54.22
2018-09-21T03:37:31.200Z,55.33
2018-09-21T03:40:00.034Z,54.25
2018-09-21T03:42:28.651Z,54.38
2018-09-21T03:44:57.178Z,55.09
2018-09-21T03:47:25.901Z,54.51
2018-09-21T03:49:54.636Z,55.04
2018-09-21T03:52:24.229Z,55.20
2018-09-21T03:54:52.961Z,55.15
2018-09-21T03:57:21.715Z,54.79
2018-09-21T03:59:50.329Z,55.13
2018-09-21T04:02:19.816Z,54.27
2018-09-21T04:04:48.617Z,55.31
2018-09-21T04:07:18.452Z,55.29
2018-09-21T04:09:47.297Z,55.82
2018-09-21T04:12:16.245Z,55.20
2018-09-21T04:14:44.947Z,55.75
2018-09-21T04:17:13.682Z,55.63
2018-09-21T04:19:43.630Z,55.40
2018-09-21T04:22:12.407Z,55.34
2018-09-21T04:24:41.295Z,56.01
2018-09-21T04:27:09.999Z,55.39
2018-09-21T04:29:38.638Z,55.76
2018-09-21T04:32:07.248Z,55.31
2018-09-21T04:34:35.927Z,56.10
2018-09-21T04:37:04.743Z,55.53
2018-09-21T04:39:33.629Z,55.50
2018-09-21T04:42:02.527Z,55.58
2018-09-21T04:44:31.286Z,56.07
2018-09-21T04:47:00.148Z,56.30
2018-09-21T04:49:28.808Z,55.76
2018-09-21T04:51:59.067Z,56.75
2018-09-21T04:54:27.772Z,56.00
2018-09-21T04:56:56.476Z,56.52
2018-09-21T04:59:27.058Z,56.15
2018-09-21T05:01:55.672Z,56.28
2018-09-21T05:04:24.614Z,55.77
2018-09-21T05:06:53.446Z,56.27
2018-09-21T05:09:22.138Z,56.88
2018-09-21T05:11:50.887Z,56.45
2018-09-21T05:14:19.698Z,56.40
2018-09-21T05:16:48.359Z,56.54
2018-09-21T05:19:17.090Z,56.53
2018-09-21T05:21:46.132Z,55.95
2018-09-21T05:24:14.827Z,55.58
2018-09-21T05:26:43.556Z,55.32
2018-09-21T05:29:12.296Z,55.33
2018-09-21T05:31:40.982Z,55.57
2018-09-21T05:34:09.675Z,54.83
2018-09-21T05:36:38.357Z,54.94
2018-09-21T05:39:11.297Z,55.03
2018-09-21T05:41:40.216Z,55.64
2018-09-21T05:44:09.965Z,54.90
2018-09-21T05:46:42.835Z,54.89
2018-09-21T05:49:11.771Z,55.21
2018-09-21T05:51:42.423Z,55.58
2018-09-21T05:54:11.197Z,54.77
2018-09-21T05:56:41.355Z,54.86
2018-09-21T05:59:10.321Z,54.38
2018-09-21T06:01:39.025Z,55.16
2018-09-21T06:04:07.747Z,54.57
2018-09-21T06:06:37.728Z,55.09
2018-09-21T06:09:08.993Z,55.04
2018-09-21T06:11:38.004Z,53.99
2018-09-21T06:14:07.331Z,54.74
2018-09-21T06:16:35.888Z,54.85
2018-09-21T06:19:05.339Z,54.83
2018-09-21T06:21:35.156Z,54.61
2018-09-21T06:24:05.990Z,54.50
2018-09-21T06:26:35.134Z,53.59
2018-09-21T06:29:04.411Z,53.83
2018-09-21T06:31:33.123Z,53.60
2018-09-21T06:34:03.389Z,53.16
2018-09-21T06:36:32.250Z,53.63
2018-09-21T06:39:02.769Z,53.07
2018-09-21T06:41:31.408Z,52.47
2018-09-21T06:44:00.281Z,52.78
2018-09-21T06:46:28.970Z,52.32
2018-09-21T06:48:57.577Z,52.05
2018-09-21T06:51:26.802Z,51.85
2018-09-21T06:53:56.128Z,52.08
2018-09-21T06:56:25.000Z,52.26
2018-09-21T06:58:53.778Z,51.31
2018-09-21T07:01:22.817Z,52.29
2018-09-21T07:03:51.450Z,51.95
2018-09-21T07:06:20.638Z,51.93
2018-09-21T07:08:49.650Z,51.26
2018-09-21T07:11:18.477Z,51.50
2018-09-21T07:13:47.628Z,51.27
2018-09-21T07:16:16.947Z,51.04
2018-09-21T07:18:45.620Z,50.06
2018-09-21T07:21:14.298Z,49.87
2018-09-21T07:23:43.241Z,50.28
2018-09-21T07:26:12.117Z,49.93
2018-09-21T07:28:41.433Z,50.60
2018-09-21T07:31:10.254Z,50.22
2018-09-21T07:33:39.259Z,50.30
2018-09-21T07:36:08.196Z,49.86
2018-09-21T07:38:36.779Z,49.74
2018-09-21T07:41:05.602Z,49.27
2018-09-21T07:43:34.380Z,48.82
2018-09-21T07:46:04.469Z,48.54
2018-09-21T07:48:33.092Z,49.16
2018-09-21T07:51:02.604Z,49.45
2018-09-21T07:53:32.721Z,48.76
2018-09-21T07:56:01.559Z,48.73
2018-09-21T07:58:30.518Z,48.93
2018-09-21T08:00:59.183Z,48.43
2018-09-21T08:03:27.880Z,48.42
2018-09-21T08:05:56.809Z,48.42
2018-09-21T08:08:26.130Z,48.99
2018-09-21T08:10:54.891Z,47.50
2018-09-21T08:13:23.430Z,48.07
2018-09-21T08:15:54.677Z,48.04
2018-09-21T08:18:23.489Z,47.91
2018-09-21T08:20:52.097Z,47.27
2018-09-21T08:23:20.784Z,47.50
2018-09-21T08:25:49.402Z,47.57
2018-09-21T08:28:18.666Z,47.74
2018-09-21T08:30:47.402Z,46.89
2018-09-21T08:33:16.345Z,47.23
2018-09-21T08:35:45.042Z,47.33
2018-09-21T08:38:14.067Z,47.42
2018-09-21T08:40:43.032Z,47.44
2018-09-21T08:43:11.808Z,47.18
2018-09-21T08:45:40.507Z,46.64
2018-09-21T08:48:09.262Z,46.90
2018-09-21T08:50:37.871Z,46.41
2018-09-21T08:53:07.146Z,46.34
2018-09-21T08:55:37.023Z,46.69
2018-09-21T08:58:05.849Z,46.49
2018-09-21T09:00:34.857Z,46.57
2018-09-21T09:03:04.720Z,45.92
2018-09-21T09:05:33.415Z,46.20
2018-09-21T09:08:02.847Z,46.20
2018-09-21T09:10:31.567Z,45.71
2018-09-21T09:13:00.226Z,45.11
2018-09-21T09:15:29.843Z,44.95
2018-09-21T09:17:59.549Z,45.49
2018-09-21T09:20:28.400Z,45.12
2018-09-21T09:22:56.961Z,45.79
2018-09-21T09:25:25.758Z,45.50
2018-09-21T09:27:54.426Z,45.31
2018-09-21T09:30:23.271Z,45.40
2018-09-21T09:32:52.026Z,45.48
2018-09-21T09:35:20.912Z,46.22
2018-09-21T09:37:50.137Z,45.75
2018-09-21T09:40:18.918Z,45.57
2018-09-21T09:42:47.690Z,46.33
2018-09-21T09:45:16.372Z,45.57
2018-09-21T09:47:45.716Z,45.61
2018-09-21T09:50:14.720Z,45.63
2018-09-21T09:52:43.714Z,46.31
2018-09-21T09:55:12.492Z,45.59
2018-09-21T09:57:41.995Z,45.44
2018-09-21T10:00:10.881Z,45.98
2018-09-21T10:02:40.073Z,45.48
2018-09-21T10:05:14.558Z,44.89
2018-09-21T10:07:43.183Z,45.29
2018-09-21T10:10:11.993Z,45.44
2018-09-21T10:12:40.722Z,45.87
2018-09-21T10:15:09.792Z,44.86
2018-09-21T10:17:38.507Z,44.77
2018-09-21T10:20:07.308Z,45.54
2018-09-21T10:22:36.100Z,44.86
2018-09-21T10:25:04.777Z,45.76
2018-09-21T10:27:33.839Z,44.64
2018-09-21T10:30:03.808Z,45.63
2018-09-21T10:32:33.049Z,45.61
2018-09-21T10:35:02.527Z,45.73
2018-09-21T10:37:31.330Z,45.92
2018-09-21T10:40:02.003Z,45.81
2018-09-21T10:42:30.875Z,45.40
2018-09-21T10:44:59.639Z,45.95
2018-09-21T10:47:28.316Z,45.81
2018-09-21T10:50:03.681Z,46.01
2018-09-21T10:52:32.799Z,46.69
2018-09-21T10:55:05.565Z,47.24
2018-09-21T10:57:36.088Z,48.84
2018-09-21T11:00:06.749Z,50.69
2018-09-21T11:02:37.381Z,52.16
2018-09-21T11:05:11.035Z,53.99
2018-09-21T11:07:40.696Z,56.01
2018-09-21T11:10:09.708Z,56.51
2018-09-21T11:12:38.719Z,59.35
2018-09-21T11:15:08.391Z,60.64
2018-09-21T11:17:37.416Z,63.99
2018-09-21T11:20:07.395Z,64.11
2018-09-21T11:22:36.142Z,64.79
2018-09-21T11:25:04.943Z,67.54
2018-09-21T11:27:34.048Z,68.39
2018-09-21T11:30:03.271Z,68.58
2018-09-21T11:32:32.009Z,66.84
2018-09-21T11:35:00.641Z,68.40
2018-09-21T11:37:29.665Z,68.03
2018-09-21T11:39:59.237Z,66.53
2018-09-21T11:42:27.974Z,67.49
2018-09-21T11:44:57.269Z,68.52
2018-09-21T11:47:26.307Z,67.12
2018-09-21T11:49:57.615Z,65.50
2018-09-21T11:52:26.425Z,64.88
2018-09-21T11:54:58.477Z,65.27
2018-09-21T11:57:27.308Z,65.48
2018-09-21T11:59:56.196Z,65.12
2018-09-21T12:02:25.041Z,65.73
2018-09-21T12:04:57.409Z,66.19
2018-09-21T12:07:26.414Z,65.45
2018-09-21T12:09:55.806Z,65.79
2018-09-21T12:12:24.726Z,64.94
2018-09-21T12:14:53.825Z,65.62
2018-09-21T12:17:22.648Z,64.21
2018-09-21T12:19:51.901Z,62.98
2018-09-21T12:22:20.877Z,62.16
2018-09-21T12:24:49.838Z,61.76
2018-09-21T12:27:19.890Z,61.17
2018-09-21T12:29:49.173Z,61.41
2018-09-21T12:32:18.011Z,62.58
2018-09-21T12:34:50.197Z,62.73
2018-09-21T12:37:19.119Z,62.57
2018-09-21T12:39:49.299Z,63.85
2018-09-21T12:42:18.324Z,64.26
2018-09-21T12:44:47.333Z,63.92
2018-09-21T12:47:16.531Z,64.27
2018-09-21T12:49:46.838Z,64.99
2018-09-21T12:52:16.103Z,63.93
2018-09-21T12:54:45.910Z,63.77
2018-09-21T12:57:15.274Z,63.65
2018-09-21T12:59:52.332Z,63.96
2018-09-21T13:02:21.947Z,64.50
2018-09-21T13:04:55.031Z,64.09
2018-09-21T13:07:23.841Z,64.57
2018-09-21T13:09:54.246Z,64.86
2018-09-21T13:12:30.498Z,64.38
2018-09-21T13:14:59.669Z,65.77
2018-09-21T13:17:28.363Z,64.80
2018-09-21T13:19:57.096Z,65.41
2018-09-21T13:22:26.071Z,64.24
2018-09-21T13:24:54.885Z,65.06
2018-09-21T13:27:23.883Z,65.42
2018-09-21T13:29:52.639Z,65.14
2018-09-21T13:32:21.793Z,64.91
2018-09-21T13:34:50.573Z,65.19
2018-09-21T13:37:19.384Z,65.04
2018-09-21T13:39:48.398Z,64.81
2018-09-21T13:42:17.204Z,65.09
2018-09-21T13:44:47.120Z,64.60
2018-09-21T13:47:15.925Z,65.79
2018-09-21T13:49:44.999Z,64.67
2018-09-21T13:52:13.932Z,62.85
2018-09-21T13:54:42.781Z,64.42
2018-09-21T13:57:11.811Z,63.59
2018-09-21T13:59:41.657Z,63.32
2018-09-21T14:02:10.878Z,64.20
2018-09-21T14:04:40.136Z,63.16
2018-09-21T14:07:09.126Z,63.33
2018-09-21T14:09:38.987Z,65.18
2018-09-21T14:12:08.794Z,65.06
2018-09-21T14:14:37.738Z,64.96
2018-09-21T14:17:06.820Z,64.35
2018-09-21T14:19:35.849Z,64.03
2018-09-21T14:22:04.667Z,64.19
2018-09-21T14:24:33.501Z,64.14
2018-09-21T14:27:02.874Z,63.65
2018-09-21T14:29:32.748Z,63.92
2018-09-21T14:32:02.324Z,64.27
2018-09-21T14:34:31.311Z,64.24
2018-09-21T14:37:06.810Z,64.15
2018-09-21T14:39:39.304Z,63.89
2018-09-21T14:42:08.453Z,63.72
2018-09-21T14:44:37.312Z,63.52
2018-09-21T14:47:06.417Z,64.46
2018-09-21T14:49:35.318Z,63.79
2018-09-21T14:52:04.318Z,63.77
2018-09-21T14:54:33.116Z,63.92
2018-09-21T14:57:02.981Z,63.77
2018-09-21T14:59:31.539Z,63.51
2018-09-21T15:02:00.296Z,63.26
2018-09-21T15:04:29.264Z,63.96
2018-09-21T15:06:59.103Z,63.35
2018-09-21T15:09:27.932Z,62.76
2018-09-21T15:11:56.613Z,62.79
2018-09-21T15:14:25.437Z,61.80
2018-09-21T15:16:54.224Z,59.87
2018-09-21T15:19:22.993Z,59.92
2018-09-21T15:21:51.796Z,61.11
2018-09-21T15:24:20.444Z,59.84
2018-09-21T15:26:49.410Z,58.93
2018-09-21T15:29:19.388Z,57.90
2018-09-21T15:31:50.137Z,56.71
2018-09-21T15:34:19.074Z,56.78
2018-09-21T15:36:48.168Z,57.56
2018-09-21T15:39:17.161Z,57.36
2018-09-21T15:41:46.391Z,57.54
2018-09-21T15:44:17.546Z,56.61
2018-09-21T15:46:46.479Z,56.64
2018-09-21T15:49:15.701Z,55.80
2018-09-21T15:51:46.127Z,51.96
2018-09-21T15:54:14.976Z,51.36
2018-09-21T15:56:43.930Z,50.90
2018-09-21T15:59:12.969Z,50.35
2018-09-21T16:01:42.141Z,50.18
2018-09-21T16:04:11.216Z,48.52
2018-09-21T16:06:40.063Z,48.16
2018-09-21T16:09:10.172Z,47.10
2018-09-21T16:11:39.432Z,46.79
2018-09-21T16:14:08.735Z,46.15
2018-09-21T16:16:38.300Z,46.77
2018-09-21T16:19:08.549Z,46.57
2018-09-21T16:21:37.451Z,46.39
2018-09-21T16:24:06.293Z,46.22
2018-09-21T16:26:35.032Z,46.52
2018-09-21T16:29:04.799Z,46.03
2018-09-21T16:31:34.444Z,46.39
2018-09-21T16:34:03.628Z,46.70
2018-09-21T16:36:33.347Z,47.00
2018-09-21T16:39:03.832Z,46.48
2018-09-21T16:41:32.526Z,47.29
2018-09-21T16:44:02.171Z,46.90
2018-09-21T16:46:30.973Z,46.84
2018-09-21T16:49:00.020Z,46.64
2018-09-21T16:51:29.463Z,46.97
2018-09-21T16:53:58.360Z,47.13
2018-09-21T16:56:27.007Z,47.02
2018-09-21T16:58:56.743Z,47.14
2018-09-21T17:01:25.727Z,49.41
2018-09-21T17:03:54.413Z,46.53
2018-09-21T17:06:23.464Z,48.08
2018-09-21T17:08:53.107Z,47.65
2018-09-21T17:11:22.906Z,46.93
2018-09-21T17:13:51.672Z,46.66
2018-09-21T17:16:20.479Z,49.00
2018-09-21T17:18:49.191Z,46.33
2018-09-21T17:21:17.733Z,45.36
2018-09-21T17:23:46.721Z,45.20
2018-09-21T17:26:16.361Z,45.69
2018-09-21T17:28:45.094Z,45.10
2018-09-21T17:31:13.645Z,45.06
2018-09-21T17:33:42.490Z,44.92
2018-09-21T17:36:11.300Z,44.87
2018-09-21T17:38:39.995Z,45.28
2018-09-21T17:41:10.027Z,45.63
2018-09-21T17:43:38.784Z,45.64
2018-09-21T17:46:07.520Z,44.94
2018-09-21T17:48:36.190Z,45.29
2018-09-21T17:51:04.992Z,45.43
2018-09-21T17:53:33.716Z,45.04
2018-09-21T17:56:03.807Z,45.84
2018-09-21T17:58:32.567Z,45.12
2018-09-21T18:01:02.002Z,45.95
2018-09-21T18:03:30.601Z,46.04
2018-09-21T18:05:59.399Z,46.51
2018-09-21T18:08:28.926Z,46.56
2018-09-21T18:10:58.165Z,46.87
2018-09-21T18:13:26.981Z,46.54
2018-09-21T18:15:55.792Z,45.37
2018-09-21T18:18:24.665Z,45.88
2018-09-21T18:20:53.427Z,44.73
2018-09-21T18:23:22.214Z,44.58
2018-09-21T18:25:51.204Z,44.01
2018-09-21T18:28:19.787Z,44.12
2018-09-21T18:30:48.937Z,43.27
2018-09-21T18:33:18.591Z,42.89
2018-09-21T18:35:47.717Z,43.48
2018-09-21T18:40:59.305Z,41.63
2018-09-21T18:46:15.819Z,41.82
2018-09-21T18:48:44.761Z,42.13
2018-09-21T18:51:13.837Z,41.59
2018-09-21T18:56:22.923Z,42.22
2018-09-21T18:58:51.918Z,42.30
2018-09-21T19:01:21.058Z,42.42
2018-09-21T19:03:49.768Z,42.86
2018-09-21T19:06:18.421Z,43.70
2018-09-21T19:08:47.079Z,43.00
2018-09-21T19:11:16.085Z,43.18
2018-09-21T19:13:44.924Z,43.79
2018-09-21T19:16:13.711Z,43.61
2018-09-21T19:18:42.939Z,43.59
2018-09-21T19:21:11.748Z,43.77
2018-09-21T19:23:40.485Z,43.57
2018-09-21T19:26:09.404Z,43.89
2018-09-21T19:28:38.409Z,43.91
2018-09-21T19:31:07.912Z,44.42
2018-09-21T19:33:36.971Z,44.63
2018-09-21T19:36:05.928Z,44.12
2018-09-21T19:38:34.948Z,44.09
2018-09-21T19:41:06.118Z,44.66
2018-09-21T19:43:35.212Z,44.64
2018-09-21T19:46:05.684Z,45.20
2018-09-21T19:48:36.456Z,44.36
2018-09-21T19:51:05.468Z,44.72
2018-09-21T19:53:35.005Z,44.05
2018-09-21T19:56:06.534Z,43.94
2018-09-21T19:58:35.608Z,44.30
2018-09-21T20:01:06.457Z,44.86
2018-09-21T20:03:35.177Z,47.39
2018-09-21T20:06:04.961Z,49.16
2018-09-21T20:08:34.714Z,50.32
2018-09-21T20:11:04.005Z,51.69
2018-09-21T20:13:32.786Z,51.47
2018-09-21T20:16:01.770Z,52.99
2018-09-21T20:18:30.454Z,55.10
2018-09-21T20:20:59.627Z,56.26
2018-09-21T20:23:28.407Z,56.18
2018-09-21T20:25:57.243Z,56.28
2018-09-21T20:28:26.398Z,56.19
2018-09-21T20:31:00.306Z,56.87
2018-09-21T20:33:31.331Z,57.84
2018-09-21T20:36:00.411Z,58.03
2018-09-21T20:38:29.817Z,59.36
2018-09-21T20:40:59.191Z,60.08
2018-09-21T20:43:28.006Z,60.71
2018-09-21T20:45:57.264Z,60.94
2018-09-21T20:48:26.268Z,60.28
2018-09-21T20:50:55.079Z,60.38
2018-09-21T20:53:24.115Z,59.44
2018-09-21T20:55:53.424Z,60.44
2018-09-21T20:58:22.156Z,60.47
2018-09-21T21:00:51.098Z,60.17
2018-09-21T21:03:20.114Z,60.67
2018-09-21T21:05:48.966Z,60.30
2018-09-21T21:08:17.752Z,60.64
2018-09-21T21:10:46.408Z,60.51
2018-09-21T21:13:15.207Z,60.40
2018-09-21T21:15:43.883Z,60.34
2018-09-21T21:20:55.879Z,60.60
2018-09-21T21:23:27.019Z,60.65
2018-09-21T21:25:56.060Z,60.80
2018-09-21T21:28:25.976Z,61.22
2018-09-21T21:30:55.003Z,61.04
2018-09-21T21:33:24.035Z,60.87
2018-09-21T21:35:52.919Z,60.83
2018-09-21T21:38:21.668Z,60.35
2018-09-21T21:40:51.425Z,59.29
2018-09-21T21:43:20.102Z,59.55
2018-09-21T21:45:49.447Z,60.02
2018-09-21T21:48:18.151Z,59.60
2018-09-21T21:50:47.126Z,59.81
2018-09-21T21:53:16.330Z,59.21
2018-09-21T21:55:55.464Z,59.57
2018-09-21T21:58:24.828Z,59.14
2018-09-21T22:00:58.979Z,57.94
2018-09-21T22:03:27.769Z,58.14
2018-09-21T22:08:42.914Z,57.61
2018-09-21T22:11:17.324Z,58.88
2018-09-21T22:13:52.006Z,59.53
2018-09-21T22:16:21.430Z,59.56
2018-09-21T22:18:50.337Z,60.30
2018-09-21T22:21:19.388Z,61.61
2018-09-21T22:23:48.181Z,62.73
2018-09-21T22:26:17.087Z,62.07
2018-09-21T22:28:45.833Z,63.99
2018-09-21T22:31:14.565Z,63.97
2018-09-21T22:33:43.716Z,64.69
2018-09-21T22:36:12.705Z,64.67
2018-09-21T22:38:41.660Z,65.23
2018-09-21T22:41:10.463Z,65.28
2018-09-21T22:43:39.842Z,65.83
2018-09-21T22:46:08.645Z,65.55
2018-09-21T22:48:37.330Z,66.42
2018-09-21T22:51:06.801Z,66.03
2018-09-21T22:53:35.495Z,66.22
2018-09-21T22:56:04.364Z,65.76
2018-09-21T22:58:33.199Z,65.88
2018-09-21T23:01:06.685Z,65.42
2018-09-21T23:03:35.549Z,65.64
2018-09-21T23:06:05.132Z,66.33
2018-09-21T23:08:34.330Z,66.21
2018-09-21T23:11:03.300Z,67.05
2018-09-21T23:13:32.085Z,66.96
2018-09-21T23:16:00.953Z,67.54
2018-09-21T23:18:29.860Z,69.61
2018-09-21T23:20:58.580Z,71.70
2018-09-21T23:23:27.590Z,71.96
2018-09-21T23:25:56.383Z,72.79
2018-09-21T23:28:26.421Z,72.25
2018-09-21T23:30:55.284Z,71.35
2018-09-21T23:33:24.105Z,71.87
2018-09-21T23:35:53.162Z,70.44
2018-09-21T23:38:21.781Z,71.74
2018-09-21T23:40:50.998Z,70.76
2018-09-21T23:43:19.919Z,70.73
2018-09-21T23:45:48.752Z,71.50
2018-09-21T23:48:18.258Z,72.34
2018-09-21T23:50:47.915Z,71.86
2018-09-21T23:53:16.653Z,71.77
2018-09-21T23:55:45.479Z,71.64
2018-09-21T23:58:15.514Z,71.44
